createdAt,value
2017-03-19T00:00:26.497Z,1.89
2017-03-19T00:01:06.978Z,2.06
2017-03-19T00:01:47.466Z,2.06
2017-03-19T00:02:27.940Z,2.04
2017-03-19T00:03:08.419Z,2
2017-03-19T00:03:48.956Z,2.04
2017-03-19T00:04:29.412Z,2.07
2017-03-19T00:05:09.893Z,2.04
2017-03-19T00:05:50.381Z,2.04
2017-03-19T00:06:30.913Z,2.04
2017-03-19T00:07:11.432Z,2.04
2017-03-19T00:07:51.919Z,2.06
2017-03-19T00:08:32.380Z,2.07
2017-03-19T00:09:12.916Z,2.06
2017-03-19T00:09:53.387Z,2.14
2017-03-19T00:10:33.872Z,2.13
2017-03-19T00:11:14.351Z,2.13
2017-03-19T00:11:54.857Z,2.07
2017-03-19T00:12:35.389Z,2.07
2017-03-19T00:13:15.891Z,2.14
2017-03-19T00:13:56.367Z,2.15
2017-03-19T00:14:36.873Z,2.15
2017-03-19T00:15:17.424Z,2.1
2017-03-19T00:15:57.922Z,2.15
2017-03-19T00:16:38.371Z,2.11
2017-03-19T00:17:18.850Z,2.17
2017-03-19T00:17:59.318Z,2.13
2017-03-19T00:18:39.811Z,2.13
2017-03-19T00:19:20.281Z,2.14
2017-03-19T00:20:00.744Z,2.14
2017-03-19T00:20:41.232Z,2.14
2017-03-19T00:21:21.684Z,2.13
2017-03-19T00:22:02.202Z,2.15
2017-03-19T00:22:42.726Z,2.17
2017-03-19T00:23:23.201Z,2.11
2017-03-19T00:24:03.724Z,2.13
2017-03-19T00:24:44.257Z,2.15
2017-03-19T00:25:24.715Z,2.13
2017-03-19T00:26:05.199Z,2.13
2017-03-19T00:26:45.714Z,2.13
2017-03-19T00:27:26.201Z,2.11
2017-03-19T00:28:06.670Z,2.1
2017-03-19T00:28:47.167Z,2.08
2017-03-19T00:29:27.671Z,2.15
2017-03-19T00:30:08.171Z,2.1
2017-03-19T00:30:48.688Z,2.15
2017-03-19T00:31:29.154Z,2.13
2017-03-19T00:32:09.616Z,2.08
2017-03-19T00:32:50.095Z,2.11
2017-03-19T00:33:30.587Z,2.11
2017-03-19T00:34:11.061Z,2.14
2017-03-19T00:34:51.544Z,2.1
2017-03-19T00:35:32.068Z,2.17
2017-03-19T00:36:12.538Z,2.1
2017-03-19T00:36:53.035Z,2.15
2017-03-19T00:37:33.506Z,2.11
2017-03-19T00:38:13.987Z,2.13
2017-03-19T00:38:54.514Z,2.18
2017-03-19T00:39:35.034Z,2.11
2017-03-19T00:40:15.513Z,2.24
2017-03-19T00:40:55.958Z,2.13
2017-03-19T00:41:36.481Z,2.13
2017-03-19T00:42:16.906Z,2.13
2017-03-19T00:42:57.425Z,2.17
2017-03-19T00:43:37.868Z,2.15
2017-03-19T00:44:18.357Z,2.15
2017-03-19T00:44:58.843Z,2.11
2017-03-19T00:45:39.327Z,2.13
2017-03-19T00:46:19.821Z,2.11
2017-03-19T00:47:00.308Z,2.11
2017-03-19T00:47:40.776Z,2.1
2017-03-19T00:48:21.249Z,2.13
2017-03-19T00:49:01.706Z,2.11
2017-03-19T00:49:42.194Z,2.1
2017-03-19T00:50:22.695Z,2.18
2017-03-19T00:51:03.220Z,2.11
2017-03-19T00:51:43.727Z,2.1
2017-03-19T00:52:24.202Z,2.11
2017-03-19T00:53:04.689Z,2.11
2017-03-19T00:53:45.179Z,2.14
2017-03-19T00:54:25.648Z,2.13
2017-03-19T00:55:06.157Z,2.2
2017-03-19T00:55:46.638Z,2.1
2017-03-19T00:56:27.085Z,2.15
2017-03-19T00:57:07.561Z,2.13
2017-03-19T00:57:48.062Z,2.13
2017-03-19T00:58:28.553Z,2.13
2017-03-19T00:59:09.021Z,2.1
2017-03-19T00:59:49.526Z,2.08
2017-03-19T01:00:30.065Z,2.13
2017-03-19T01:01:10.539Z,2.04
2017-03-19T01:01:51.070Z,2.06
2017-03-19T01:02:31.611Z,2.13
2017-03-19T01:03:12.074Z,2.13
2017-03-19T01:03:52.593Z,2.15
2017-03-19T01:04:33.056Z,2.1
2017-03-19T01:05:13.601Z,2.13
2017-03-19T01:05:54.042Z,2.13
2017-03-19T01:06:34.531Z,2.15
2017-03-19T01:07:15.038Z,2.17
2017-03-19T01:07:55.503Z,2.17
2017-03-19T01:08:36.018Z,2.22
2017-03-19T01:09:16.471Z,2.18
2017-03-19T01:09:57.000Z,2.2
2017-03-19T01:10:37.495Z,2.18
2017-03-19T01:11:17.963Z,2.17
2017-03-19T01:11:58.502Z,2.13
2017-03-19T01:12:39.020Z,2.17
2017-03-19T01:13:19.486Z,2.26
2017-03-19T01:13:59.980Z,2.26
2017-03-19T01:14:40.433Z,2.29
2017-03-19T01:15:20.933Z,2.26
2017-03-19T01:16:01.386Z,2.29
2017-03-19T01:16:41.876Z,2.28
2017-03-19T01:17:22.398Z,2.32
2017-03-19T01:18:02.876Z,2.28
2017-03-19T01:18:43.414Z,2.32
2017-03-19T01:19:23.987Z,2.29
2017-03-19T01:20:04.423Z,2.26
2017-03-19T01:20:44.926Z,2.24
2017-03-19T01:21:25.412Z,2.29
2017-03-19T01:22:05.898Z,2.29
2017-03-19T01:22:46.386Z,2.29
2017-03-19T01:23:26.883Z,2.28
2017-03-19T01:24:07.396Z,2.29
2017-03-19T01:24:47.866Z,2.31
2017-03-19T01:25:28.395Z,2.36
2017-03-19T01:26:08.854Z,2.32
2017-03-19T01:26:49.331Z,2.35
2017-03-19T01:27:29.827Z,2.32
2017-03-19T01:28:10.292Z,2.38
2017-03-19T01:28:50.776Z,2.32
2017-03-19T01:29:31.307Z,2.39
2017-03-19T01:30:11.819Z,2.35
2017-03-19T01:30:52.313Z,2.36
2017-03-19T01:31:32.785Z,2.35
2017-03-19T01:32:13.354Z,2.43
2017-03-19T01:32:53.758Z,2.38
2017-03-19T01:33:34.245Z,2.38
2017-03-19T01:34:14.730Z,2.42
2017-03-19T01:34:55.246Z,2.39
2017-03-19T01:35:35.726Z,2.38
2017-03-19T01:36:16.217Z,2.33
2017-03-19T01:36:56.752Z,2.28
2017-03-19T01:37:37.209Z,2.31
2017-03-19T01:38:17.696Z,2.35
2017-03-19T01:38:58.215Z,2.28
2017-03-19T01:39:41.399Z,2.31
2017-03-19T01:40:21.864Z,2.29
2017-03-19T01:41:02.326Z,2.31
2017-03-19T01:41:42.827Z,2.25
2017-03-19T01:42:23.326Z,2.32
2017-03-19T01:43:03.821Z,2.33
2017-03-19T01:43:44.285Z,2.31
2017-03-19T01:44:24.814Z,2.29
2017-03-19T01:45:05.279Z,2.22
2017-03-19T01:45:45.742Z,2.24
2017-03-19T01:46:26.258Z,2.28
2017-03-19T01:47:06.713Z,2.26
2017-03-19T01:47:47.231Z,2.25
2017-03-19T01:48:27.759Z,2.24
2017-03-19T01:49:08.236Z,2.29
2017-03-19T01:49:48.734Z,2.28
2017-03-19T01:50:29.264Z,2.31
2017-03-19T01:51:09.719Z,2.28
2017-03-19T01:51:50.175Z,2.24
2017-03-19T01:52:30.677Z,2.26
2017-03-19T01:53:11.167Z,2.26
2017-03-19T01:53:51.638Z,2.28
2017-03-19T01:54:32.131Z,2.26
2017-03-19T01:55:12.611Z,2.26
2017-03-19T01:55:53.118Z,2.31
2017-03-19T01:56:33.613Z,2.2
2017-03-19T01:57:14.086Z,2.24
2017-03-19T01:57:54.591Z,2.17
2017-03-19T01:58:35.055Z,2.13
2017-03-19T01:59:15.541Z,2.11
2017-03-19T01:59:56.021Z,2.11
2017-03-19T02:00:36.515Z,2.06
2017-03-19T02:01:16.968Z,2.14
2017-03-19T02:01:57.432Z,2.06
2017-03-19T02:02:38.046Z,2.15
2017-03-19T02:03:18.520Z,2.06
2017-03-19T02:03:59.014Z,2.1
2017-03-19T02:04:39.498Z,2.04
2017-03-19T02:05:19.979Z,1.92
2017-03-19T02:06:00.443Z,1.91
2017-03-19T02:06:40.962Z,1.91
2017-03-19T02:07:21.456Z,1.95
2017-03-19T02:08:01.947Z,1.91
2017-03-19T02:08:42.416Z,1.92
2017-03-19T02:09:22.894Z,1.91
2017-03-19T02:10:03.374Z,1.95
2017-03-19T02:10:43.862Z,1.89
2017-03-19T02:11:24.319Z,1.91
2017-03-19T02:12:04.819Z,1.88
2017-03-19T02:12:45.302Z,1.91
2017-03-19T02:13:25.823Z,1.99
2017-03-19T02:14:06.288Z,1.92
2017-03-19T02:14:46.804Z,1.85
2017-03-19T02:15:27.295Z,1.87
2017-03-19T02:16:07.779Z,1.84
2017-03-19T02:16:48.253Z,1.8
2017-03-19T02:17:28.732Z,1.84
2017-03-19T02:18:09.193Z,1.85
2017-03-19T02:18:49.665Z,1.92
2017-03-19T02:19:33.112Z,1.92
2017-03-19T02:20:13.606Z,1.95
2017-03-19T02:20:54.137Z,1.92
2017-03-19T02:21:34.638Z,1.94
2017-03-19T02:22:15.114Z,1.95
2017-03-19T02:22:55.619Z,1.92
2017-03-19T02:23:36.075Z,1.92
2017-03-19T02:24:16.598Z,1.89
2017-03-19T02:24:57.062Z,1.92
2017-03-19T02:25:37.528Z,1.94
2017-03-19T02:26:18.027Z,2.02
2017-03-19T02:26:58.566Z,1.99
2017-03-19T02:27:39.067Z,1.91
2017-03-19T02:28:19.534Z,2.02
2017-03-19T02:29:00.032Z,2
2017-03-19T02:29:40.530Z,1.94
2017-03-19T02:30:21.010Z,1.95
2017-03-19T02:31:01.497Z,1.92
2017-03-19T02:31:41.996Z,2.02
2017-03-19T02:33:36.343Z,2.06
2017-03-19T02:34:16.586Z,2.04
2017-03-19T02:34:57.078Z,2
2017-03-19T02:35:37.589Z,1.95
2017-03-19T02:36:18.051Z,1.97
2017-03-19T02:36:58.558Z,2.02
2017-03-19T02:37:39.069Z,1.94
2017-03-19T02:38:19.565Z,1.92
2017-03-19T02:39:00.017Z,1.94
2017-03-19T02:39:40.518Z,1.95
2017-03-19T02:40:21.060Z,1.94
2017-03-19T02:41:01.540Z,1.91
2017-03-19T02:41:42.012Z,1.91
2017-03-19T02:42:22.519Z,1.88
2017-03-19T02:43:03.029Z,1.97
2017-03-19T02:43:43.496Z,1.94
2017-03-19T02:44:23.981Z,1.89
2017-03-19T02:45:04.467Z,1.87
2017-03-19T02:45:44.963Z,1.91
2017-03-19T02:46:25.472Z,1.99
2017-03-19T02:47:05.919Z,1.92
2017-03-19T02:47:46.424Z,1.94
2017-03-19T02:48:26.912Z,1.95
2017-03-19T02:49:07.365Z,1.92
2017-03-19T02:49:47.890Z,1.89
2017-03-19T02:50:28.338Z,2
2017-03-19T02:51:08.848Z,1.95
2017-03-19T02:51:49.320Z,1.91
2017-03-19T02:52:29.862Z,1.99
2017-03-19T02:53:10.397Z,1.95
2017-03-19T02:53:50.861Z,2.04
2017-03-19T02:54:31.334Z,2
2017-03-19T02:55:11.837Z,1.94
2017-03-19T02:55:52.350Z,1.92
2017-03-19T02:56:32.814Z,1.92
2017-03-19T02:57:13.268Z,1.94
2017-03-19T02:57:53.792Z,1.88
2017-03-19T02:58:34.264Z,1.88
2017-03-19T02:59:14.743Z,1.94
2017-03-19T02:59:55.237Z,1.92
2017-03-19T03:00:35.753Z,2.02
2017-03-19T03:01:16.244Z,2.02
2017-03-19T03:01:56.694Z,1.95
2017-03-19T03:02:37.196Z,1.99
2017-03-19T03:03:17.672Z,2.06
2017-03-19T03:03:58.147Z,2.06
2017-03-19T03:04:38.660Z,1.99
2017-03-19T03:05:19.121Z,2.04
2017-03-19T03:05:59.597Z,2.04
2017-03-19T03:06:40.061Z,1.97
2017-03-19T03:07:20.532Z,1.91
2017-03-19T03:08:01.003Z,1.91
2017-03-19T03:08:41.503Z,1.89
2017-03-19T03:09:21.950Z,1.87
2017-03-19T03:10:02.450Z,1.89
2017-03-19T03:10:42.943Z,1.88
2017-03-19T03:11:23.408Z,1.89
2017-03-19T03:12:03.968Z,1.92
2017-03-19T03:12:44.481Z,1.94
2017-03-19T03:13:24.973Z,1.87
2017-03-19T03:14:05.476Z,1.89
2017-03-19T03:14:45.953Z,1.94
2017-03-19T03:15:26.482Z,1.87
2017-03-19T03:16:06.947Z,1.88
2017-03-19T03:16:47.435Z,1.92
2017-03-19T03:17:27.952Z,1.92
2017-03-19T03:18:08.438Z,1.88
2017-03-19T03:18:48.961Z,1.91
2017-03-19T03:19:29.506Z,1.94
2017-03-19T03:20:09.970Z,1.92
2017-03-19T03:20:50.492Z,1.87
2017-03-19T03:21:31.036Z,1.92
2017-03-19T03:22:11.502Z,1.95
2017-03-19T03:22:51.974Z,1.95
2017-03-19T03:23:32.492Z,1.84
2017-03-19T03:24:12.977Z,1.89
2017-03-19T03:24:53.418Z,1.89
2017-03-19T03:25:33.964Z,1.95
2017-03-19T03:26:14.429Z,1.91
2017-03-19T03:26:54.941Z,1.88
2017-03-19T03:27:35.419Z,1.92
2017-03-19T03:28:15.931Z,1.99
2017-03-19T03:28:56.396Z,1.91
2017-03-19T03:29:36.884Z,1.95
2017-03-19T03:30:17.357Z,1.89
2017-03-19T03:30:57.855Z,1.92
2017-03-19T03:31:38.374Z,1.87
2017-03-19T03:32:18.801Z,1.92
2017-03-19T03:32:59.283Z,1.99
2017-03-19T03:33:39.777Z,1.95
2017-03-19T03:34:20.254Z,1.91
2017-03-19T03:35:00.735Z,1.97
2017-03-19T03:35:41.244Z,1.95
2017-03-19T03:36:21.725Z,1.92
2017-03-19T03:37:02.220Z,1.95
2017-03-19T03:37:42.660Z,1.95
2017-03-19T03:38:23.181Z,1.95
2017-03-19T03:39:03.631Z,1.95
2017-03-19T03:39:44.203Z,2.07
2017-03-19T03:40:24.657Z,2.07
2017-03-19T03:41:05.164Z,2.04
2017-03-19T03:41:45.647Z,2.06
2017-03-19T03:42:26.144Z,1.95
2017-03-19T03:43:06.593Z,2.07
2017-03-19T03:43:47.103Z,2.04
2017-03-19T03:44:27.596Z,2.07
2017-03-19T03:45:08.044Z,2.02
2017-03-19T03:45:48.532Z,2.08
2017-03-19T03:46:29.019Z,2
2017-03-19T03:47:09.488Z,2.02
2017-03-19T03:47:49.955Z,1.99
2017-03-19T03:48:30.455Z,2.02
2017-03-19T03:49:10.951Z,2
2017-03-19T03:49:51.404Z,2
2017-03-19T03:50:31.901Z,2.04
2017-03-19T03:51:12.389Z,2.06
2017-03-19T03:51:52.868Z,2.06
2017-03-19T03:52:33.377Z,2.07
2017-03-19T03:53:13.831Z,2.14
2017-03-19T03:53:54.319Z,2.02
2017-03-19T03:54:34.816Z,2.06
2017-03-19T03:55:15.256Z,2.14
2017-03-19T03:55:55.720Z,2.15
2017-03-19T03:56:36.194Z,2.14
2017-03-19T03:57:16.668Z,2.07
2017-03-19T03:57:57.182Z,2.1
2017-03-19T03:58:37.688Z,2.11
2017-03-19T03:59:18.165Z,2.15
2017-03-19T03:59:58.698Z,2.1
2017-03-19T04:00:39.206Z,2.13
2017-03-19T04:01:19.634Z,2.1
2017-03-19T04:02:00.116Z,2.1
2017-03-19T04:02:40.588Z,2.15
2017-03-19T04:03:21.090Z,2.13
2017-03-19T04:04:01.576Z,2.1
2017-03-19T04:04:42.079Z,2.13
2017-03-19T04:05:22.578Z,2.15
2017-03-19T04:06:03.054Z,2.11
2017-03-19T04:06:43.571Z,2.13
2017-03-19T04:07:23.984Z,2.15
2017-03-19T04:08:04.526Z,2.2
2017-03-19T04:08:44.966Z,2.14
2017-03-19T04:09:25.474Z,2.13
2017-03-19T04:10:05.977Z,2.24
2017-03-19T04:10:46.472Z,2.18
2017-03-19T04:11:26.955Z,2.17
2017-03-19T04:12:07.453Z,2.2
2017-03-19T04:12:47.931Z,2.25
2017-03-19T04:13:28.441Z,2.25
2017-03-19T04:14:08.947Z,2.25
2017-03-19T04:14:49.452Z,2.31
2017-03-19T04:15:29.944Z,2.25
2017-03-19T04:16:10.426Z,2.25
2017-03-19T04:16:50.910Z,2.25
2017-03-19T04:17:31.414Z,2.29
2017-03-19T04:18:11.883Z,2.26
2017-03-19T04:18:52.385Z,2.25
2017-03-19T04:19:32.848Z,2.2
2017-03-19T04:20:13.341Z,2.17
2017-03-19T04:20:53.819Z,2.31
2017-03-19T04:21:34.346Z,2.26
2017-03-19T04:22:14.840Z,2.31
2017-03-19T04:22:55.329Z,2.32
2017-03-19T04:23:35.814Z,2.29
2017-03-19T04:24:16.282Z,2.35
2017-03-19T04:24:56.755Z,2.25
2017-03-19T04:25:37.270Z,2.33
2017-03-19T04:26:17.747Z,2.38
2017-03-19T04:26:58.274Z,2.42
2017-03-19T04:27:38.746Z,2.38
2017-03-19T04:28:19.237Z,2.38
2017-03-19T04:28:59.711Z,2.39
2017-03-19T04:29:40.206Z,2.38
2017-03-19T04:30:20.801Z,2.35
2017-03-19T04:31:01.303Z,2.43
2017-03-19T04:31:41.776Z,2.33
2017-03-19T04:32:22.261Z,2.51
2017-03-19T04:33:02.728Z,2.42
2017-03-19T04:33:43.257Z,2.47
2017-03-19T04:34:23.773Z,2.46
2017-03-19T04:35:04.273Z,2.53
2017-03-19T04:35:44.732Z,2.49
2017-03-19T04:36:25.273Z,2.53
2017-03-19T04:37:05.731Z,2.56
2017-03-19T04:37:46.283Z,2.53
2017-03-19T04:38:26.787Z,2.49
2017-03-19T04:39:07.286Z,2.5
2017-03-19T04:39:47.798Z,2.51
2017-03-19T04:40:28.275Z,2.57
2017-03-19T04:41:08.796Z,2.6
2017-03-19T04:41:49.273Z,2.61
2017-03-19T04:42:29.759Z,2.57
2017-03-19T04:43:10.219Z,2.6
2017-03-19T04:43:50.711Z,2.64
2017-03-19T04:44:31.172Z,2.61
2017-03-19T04:45:11.680Z,2.69
2017-03-19T04:45:52.149Z,2.61
2017-03-19T04:46:32.638Z,2.64
2017-03-19T04:47:13.142Z,2.67
2017-03-19T04:47:53.669Z,2.68
2017-03-19T04:48:34.134Z,2.68
2017-03-19T04:49:14.676Z,2.67
2017-03-19T04:49:55.133Z,2.75
2017-03-19T04:50:35.644Z,2.75
2017-03-19T04:51:16.189Z,2.8
2017-03-19T04:51:56.706Z,2.79
2017-03-19T04:52:37.217Z,2.82
2017-03-19T04:53:17.694Z,2.8
2017-03-19T04:53:58.188Z,2.75
2017-03-19T04:54:38.659Z,2.8
2017-03-19T04:55:19.159Z,2.77
2017-03-19T04:55:59.624Z,2.8
2017-03-19T04:56:40.122Z,2.86
2017-03-19T04:57:20.567Z,2.9
2017-03-19T04:58:01.045Z,2.83
2017-03-19T04:58:41.560Z,2.89
2017-03-19T04:59:21.996Z,2.85
2017-03-19T05:00:02.501Z,2.92
2017-03-19T05:00:43.005Z,2.9
2017-03-19T05:01:23.522Z,2.83
2017-03-19T05:02:04.012Z,2.89
2017-03-19T05:02:44.487Z,2.85
2017-03-19T05:03:24.954Z,2.93
2017-03-19T05:04:05.479Z,2.92
2017-03-19T05:04:46.107Z,2.95
2017-03-19T05:05:26.567Z,2.93
2017-03-19T05:06:07.033Z,2.92
2017-03-19T05:06:47.522Z,2.86
2017-03-19T05:07:28.046Z,2.9
2017-03-19T05:08:08.544Z,2.9
2017-03-19T05:08:49.055Z,2.86
2017-03-19T05:09:29.576Z,2.89
2017-03-19T05:10:10.058Z,2.87
2017-03-19T05:10:50.539Z,2.89
2017-03-19T05:11:31.020Z,2.87
2017-03-19T05:12:11.538Z,2.95
2017-03-19T05:12:52.027Z,2.89
2017-03-19T05:13:32.501Z,2.9
2017-03-19T05:14:13.017Z,2.87
2017-03-19T05:14:53.500Z,2.9
2017-03-19T05:15:33.922Z,2.95
2017-03-19T05:16:14.409Z,2.92
2017-03-19T05:16:54.868Z,2.95
2017-03-19T05:17:35.348Z,2.87
2017-03-19T05:18:15.820Z,2.95
2017-03-19T05:18:56.342Z,2.92
2017-03-19T05:19:36.842Z,2.86
2017-03-19T05:20:17.287Z,2.95
2017-03-19T05:20:57.759Z,2.9
2017-03-19T05:21:38.257Z,2.92
2017-03-19T05:22:21.466Z,2.9
2017-03-19T05:23:01.941Z,2.93
2017-03-19T05:23:42.426Z,2.89
2017-03-19T05:24:22.912Z,2.9
2017-03-19T05:25:03.356Z,2.92
2017-03-19T05:25:43.828Z,2.9
2017-03-19T05:26:24.334Z,2.95
2017-03-19T05:27:04.811Z,2.95
2017-03-19T05:27:45.290Z,2.95
2017-03-19T05:28:25.828Z,3.01
2017-03-19T05:29:06.291Z,2.97
2017-03-19T05:29:46.804Z,2.95
2017-03-19T05:30:27.288Z,3.04
2017-03-19T05:31:07.815Z,3.01
2017-03-19T05:31:48.279Z,2.98
2017-03-19T05:32:28.872Z,3
2017-03-19T05:33:09.444Z,3.05
2017-03-19T05:33:49.997Z,3.03
2017-03-19T05:34:30.436Z,3.05
2017-03-19T05:35:10.937Z,3.04
2017-03-19T05:35:51.420Z,3.08
2017-03-19T05:36:31.899Z,3.08
2017-03-19T05:37:12.392Z,3.13
2017-03-19T05:37:52.927Z,3.08
2017-03-19T05:38:33.412Z,3.08
2017-03-19T05:39:13.902Z,3.11
2017-03-19T05:39:54.379Z,3.13
2017-03-19T05:40:34.968Z,3.1
2017-03-19T05:41:15.493Z,3.11
2017-03-19T05:41:55.998Z,3.13
2017-03-19T05:42:36.463Z,3.13
2017-03-19T05:43:16.937Z,3.18
2017-03-19T05:43:57.409Z,3.21
2017-03-19T05:44:37.869Z,3.21
2017-03-19T05:45:18.370Z,3.19
2017-03-19T05:45:58.833Z,3.19
2017-03-19T05:46:39.317Z,3.16
2017-03-19T05:47:19.785Z,3.16
2017-03-19T05:48:00.362Z,3.26
2017-03-19T05:48:40.821Z,3.21
2017-03-19T05:49:21.334Z,3.16
2017-03-19T05:50:01.846Z,3.23
2017-03-19T05:50:42.298Z,3.21
2017-03-19T05:51:22.833Z,3.19
2017-03-19T05:52:03.353Z,3.16
2017-03-19T05:52:43.865Z,3.21
2017-03-19T05:53:24.344Z,3.21
2017-03-19T05:54:04.800Z,3.32
2017-03-19T05:54:45.333Z,3.31
2017-03-19T05:55:25.902Z,3.34
2017-03-19T05:56:06.379Z,3.42
2017-03-19T05:56:46.873Z,3.32
2017-03-19T05:57:27.348Z,3.37
2017-03-19T05:58:07.822Z,3.32
2017-03-19T05:58:48.373Z,3.37
2017-03-19T05:59:28.894Z,3.44
2017-03-19T06:00:09.343Z,3.44
2017-03-19T06:00:49.841Z,3.42
2017-03-19T06:01:30.338Z,3.29
2017-03-19T06:02:10.828Z,3.5
2017-03-19T06:02:51.327Z,3.31
2017-03-19T06:03:31.793Z,3.31
2017-03-19T06:04:12.256Z,3.28
2017-03-19T06:04:52.750Z,3.4
2017-03-19T06:05:33.215Z,3.41
2017-03-19T06:06:13.763Z,3.4
2017-03-19T06:06:54.253Z,3.44
2017-03-19T06:07:34.772Z,3.45
2017-03-19T06:08:15.281Z,3.5
2017-03-19T06:08:55.733Z,3.53
2017-03-19T06:09:36.195Z,3.53
2017-03-19T06:10:16.710Z,3.53
2017-03-19T06:10:57.199Z,3.58
2017-03-19T06:11:37.699Z,3.5
2017-03-19T06:12:18.212Z,3.56
2017-03-19T06:12:58.780Z,3.59
2017-03-19T06:13:39.288Z,3.5
2017-03-19T06:14:19.757Z,3.56
2017-03-19T06:15:00.245Z,3.53
2017-03-19T06:15:40.714Z,3.59
2017-03-19T06:16:21.201Z,3.56
2017-03-19T06:17:01.677Z,3.53
2017-03-19T06:17:42.203Z,3.63
2017-03-19T06:18:22.666Z,3.56
2017-03-19T06:19:03.172Z,3.63
2017-03-19T06:19:43.659Z,3.7
2017-03-19T06:20:24.125Z,3.68
2017-03-19T06:21:04.591Z,3.6
2017-03-19T06:21:45.094Z,3.77
2017-03-19T06:22:25.578Z,3.73
2017-03-19T06:23:06.093Z,3.76
2017-03-19T06:23:46.536Z,3.73
2017-03-19T06:24:27.031Z,3.76
2017-03-19T06:25:07.507Z,3.8
2017-03-19T06:25:47.993Z,3.81
2017-03-19T06:26:28.485Z,3.74
2017-03-19T06:27:09.028Z,3.7
2017-03-19T06:27:49.530Z,3.86
2017-03-19T06:28:29.979Z,3.77
2017-03-19T06:29:10.440Z,3.84
2017-03-19T06:29:50.928Z,3.73
2017-03-19T06:30:31.446Z,3.78
2017-03-19T06:31:11.880Z,3.86
2017-03-19T06:31:52.462Z,3.84
2017-03-19T06:32:32.939Z,3.86
2017-03-19T06:33:13.388Z,3.86
2017-03-19T06:33:53.884Z,3.86
2017-03-19T06:34:34.329Z,3.95
2017-03-19T06:35:14.796Z,3.99
2017-03-19T06:35:55.294Z,3.94
2017-03-19T06:36:35.808Z,3.96
2017-03-19T06:37:16.303Z,3.96
2017-03-19T06:37:56.786Z,3.91
2017-03-19T06:38:37.242Z,4.08
2017-03-19T06:39:17.728Z,3.99
2017-03-19T06:39:58.219Z,4.05
2017-03-19T06:40:38.687Z,4.12
2017-03-19T06:41:19.196Z,4.08
2017-03-19T06:41:59.669Z,4.14
2017-03-19T06:42:40.165Z,4.12
2017-03-19T06:43:20.675Z,4.13
2017-03-19T06:44:01.165Z,4.19
2017-03-19T06:44:41.703Z,4.16
2017-03-19T06:45:22.198Z,4.3
2017-03-19T06:46:02.660Z,4.14
2017-03-19T06:46:43.146Z,4.06
2017-03-19T06:47:23.649Z,4.12
2017-03-19T06:48:04.091Z,4.2
2017-03-19T06:48:44.556Z,4.28
2017-03-19T06:49:25.096Z,4.24
2017-03-19T06:50:05.580Z,4.28
2017-03-19T06:50:46.147Z,4.26
2017-03-19T06:51:26.612Z,4.26
2017-03-19T06:52:07.087Z,4.34
2017-03-19T06:52:47.581Z,4.32
2017-03-19T06:53:28.078Z,4.38
2017-03-19T06:54:08.539Z,4.3
2017-03-19T06:54:49.030Z,4.4
2017-03-19T06:55:29.525Z,4.34
2017-03-19T06:56:09.991Z,4.35
2017-03-19T06:56:50.464Z,4.38
2017-03-19T06:57:30.966Z,4.41
2017-03-19T06:58:11.453Z,4.4
2017-03-19T06:58:51.973Z,4.4
2017-03-19T06:59:32.439Z,4.34
2017-03-19T07:00:12.945Z,4.42
2017-03-19T07:00:53.392Z,4.45
2017-03-19T07:01:33.903Z,4.38
2017-03-19T07:02:14.372Z,4.38
2017-03-19T07:02:54.866Z,4.38
2017-03-19T07:03:35.342Z,4.42
2017-03-19T07:04:15.814Z,4.41
2017-03-19T07:04:56.358Z,4.44
2017-03-19T07:05:36.839Z,4.44
2017-03-19T07:06:17.377Z,4.4
2017-03-19T07:06:57.912Z,4.48
2017-03-19T07:07:38.382Z,4.48
2017-03-19T07:08:18.875Z,4.48
2017-03-19T07:08:59.377Z,4.4
2017-03-19T07:09:39.881Z,4.48
2017-03-19T07:10:20.384Z,4.49
2017-03-19T07:11:00.865Z,4.5
2017-03-19T07:11:41.422Z,4.49
2017-03-19T07:12:21.899Z,4.49
2017-03-19T07:13:02.368Z,4.41
2017-03-19T07:13:42.846Z,4.48
2017-03-19T07:14:23.341Z,4.49
2017-03-19T07:15:03.817Z,4.5
2017-03-19T07:15:44.284Z,4.45
2017-03-19T07:16:24.814Z,4.55
2017-03-19T07:17:05.321Z,4.58
2017-03-19T07:17:45.804Z,4.53
2017-03-19T07:18:26.279Z,4.58
2017-03-19T07:19:06.749Z,4.62
2017-03-19T07:19:47.254Z,4.6
2017-03-19T07:20:27.720Z,4.56
2017-03-19T07:21:08.233Z,4.58
2017-03-19T07:21:48.729Z,4.6
2017-03-19T07:22:29.213Z,4.59
2017-03-19T07:23:09.749Z,4.67
2017-03-19T07:23:50.246Z,4.71
2017-03-19T07:24:30.728Z,4.73
2017-03-19T07:25:11.214Z,4.63
2017-03-19T07:25:51.721Z,4.78
2017-03-19T07:26:32.186Z,4.66
2017-03-19T07:27:12.689Z,4.73
2017-03-19T07:27:53.161Z,4.71
2017-03-19T07:28:33.637Z,4.86
2017-03-19T07:29:14.110Z,4.78
2017-03-19T07:29:54.638Z,4.78
2017-03-19T07:30:35.108Z,4.7
2017-03-19T07:31:15.578Z,4.86
2017-03-19T07:31:56.087Z,4.8
2017-03-19T07:32:36.612Z,4.77
2017-03-19T07:33:17.059Z,4.73
2017-03-19T07:33:57.560Z,4.6
2017-03-19T07:34:38.053Z,4.63
2017-03-19T07:35:18.538Z,4.71
2017-03-19T07:35:58.993Z,4.7
2017-03-19T07:36:39.506Z,4.67
2017-03-19T07:37:19.981Z,4.74
2017-03-19T07:38:00.468Z,4.59
2017-03-19T07:38:40.935Z,4.7
2017-03-19T07:39:21.458Z,4.71
2017-03-19T07:40:01.956Z,4.68
2017-03-19T07:40:42.477Z,4.73
2017-03-19T07:41:22.999Z,4.71
2017-03-19T07:42:03.467Z,4.7
2017-03-19T07:42:44.024Z,4.6
2017-03-19T07:43:24.476Z,4.59
2017-03-19T07:44:04.963Z,4.6
2017-03-19T07:44:45.427Z,4.7
2017-03-19T07:45:25.941Z,4.67
2017-03-19T07:46:06.444Z,4.71
2017-03-19T07:46:46.946Z,4.74
2017-03-19T07:47:27.401Z,4.7
2017-03-19T07:48:07.911Z,4.74
2017-03-19T07:48:48.421Z,4.7
2017-03-19T07:49:28.921Z,4.77
2017-03-19T07:50:09.394Z,4.71
2017-03-19T07:50:49.873Z,4.7
2017-03-19T07:51:30.383Z,4.6
2017-03-19T07:52:10.840Z,4.67
2017-03-19T07:52:51.352Z,4.59
2017-03-19T07:53:31.846Z,4.68
2017-03-19T07:54:12.333Z,4.6
2017-03-19T07:54:52.839Z,4.77
2017-03-19T07:55:33.320Z,4.59
2017-03-19T07:56:13.849Z,4.7
2017-03-19T07:56:54.316Z,4.66
2017-03-19T07:57:34.779Z,4.68
2017-03-19T07:58:15.349Z,4.7
2017-03-19T07:58:55.853Z,4.67
2017-03-19T07:59:36.329Z,4.66
2017-03-19T08:00:16.802Z,4.63
2017-03-19T08:00:57.279Z,4.62
2017-03-19T08:01:37.775Z,4.67
2017-03-19T08:02:18.264Z,4.68
2017-03-19T08:02:58.775Z,4.56
2017-03-19T08:03:39.234Z,4.59
2017-03-19T08:04:19.749Z,4.56
2017-03-19T08:05:00.218Z,4.6
2017-03-19T08:05:40.688Z,4.68
2017-03-19T08:06:21.206Z,4.56
2017-03-19T08:07:01.678Z,4.62
2017-03-19T08:07:42.135Z,4.6
2017-03-19T08:08:22.643Z,4.52
2017-03-19T08:09:03.109Z,4.63
2017-03-19T08:09:43.573Z,4.53
2017-03-19T08:10:24.082Z,4.53
2017-03-19T08:11:04.540Z,4.5
2017-03-19T08:11:45.028Z,4.55
2017-03-19T08:12:25.560Z,4.55
2017-03-19T08:13:06.043Z,4.52
2017-03-19T08:13:46.534Z,4.56
2017-03-19T08:14:27.025Z,4.53
2017-03-19T08:15:07.535Z,4.55
2017-03-19T08:15:48.002Z,4.55
2017-03-19T08:16:28.481Z,4.49
2017-03-19T08:17:08.993Z,4.56
2017-03-19T08:17:49.476Z,4.5
2017-03-19T08:18:29.998Z,4.56
2017-03-19T08:19:10.450Z,4.5
2017-03-19T08:19:50.930Z,4.53
2017-03-19T08:20:31.433Z,4.53
2017-03-19T08:21:11.887Z,4.48
2017-03-19T08:21:52.380Z,4.48
2017-03-19T08:22:32.846Z,4.48
2017-03-19T08:23:13.340Z,4.53
2017-03-19T08:23:53.821Z,4.58
2017-03-19T08:24:34.381Z,4.58
2017-03-19T08:25:14.867Z,4.52
2017-03-19T08:25:55.427Z,4.58
2017-03-19T08:26:35.944Z,4.53
2017-03-19T08:27:16.420Z,4.59
2017-03-19T08:27:56.942Z,4.44
2017-03-19T08:28:37.455Z,4.45
2017-03-19T08:29:17.916Z,4.48
2017-03-19T08:29:58.393Z,4.5
2017-03-19T08:30:38.910Z,4.55
2017-03-19T08:31:19.382Z,4.49
2017-03-19T08:31:59.857Z,4.53
2017-03-19T08:32:40.346Z,4.52
2017-03-19T08:33:20.871Z,4.45
2017-03-19T08:34:01.331Z,4.53
2017-03-19T08:34:41.855Z,4.52
2017-03-19T08:35:22.352Z,4.48
2017-03-19T08:36:02.856Z,4.52
2017-03-19T08:36:43.358Z,4.53
2017-03-19T08:37:23.883Z,4.52
2017-03-19T08:38:04.353Z,4.53
2017-03-19T08:38:44.870Z,4.52
2017-03-19T08:39:25.352Z,4.53
2017-03-19T08:40:05.848Z,4.55
2017-03-19T08:40:46.385Z,4.55
2017-03-19T08:41:26.856Z,4.62
2017-03-19T08:43:20.189Z,4.5
2017-03-19T08:44:00.373Z,4.6
2017-03-19T08:44:40.848Z,4.58
2017-03-19T08:45:21.358Z,4.6
2017-03-19T08:46:01.833Z,4.6
2017-03-19T08:46:42.286Z,4.59
2017-03-19T08:47:22.755Z,4.59
2017-03-19T08:48:03.239Z,4.56
2017-03-19T08:48:43.733Z,4.55
2017-03-19T08:49:24.222Z,4.55
2017-03-19T08:50:04.702Z,4.52
2017-03-19T08:50:45.174Z,4.53
2017-03-19T08:51:25.719Z,4.48
2017-03-19T08:52:06.181Z,4.58
2017-03-19T08:52:46.651Z,4.53
2017-03-19T08:53:27.150Z,4.49
2017-03-19T08:54:07.667Z,4.5
2017-03-19T08:54:48.137Z,4.45
2017-03-19T08:55:28.598Z,4.44
2017-03-19T08:56:09.097Z,4.44
2017-03-19T08:56:49.579Z,4.49
2017-03-19T08:57:30.077Z,4.49
2017-03-19T08:58:10.533Z,4.44
2017-03-19T08:58:51.032Z,4.53
2017-03-19T08:59:31.502Z,4.48
2017-03-19T09:00:12.029Z,4.45
2017-03-19T09:00:52.506Z,4.53
2017-03-19T09:01:33.005Z,4.52
2017-03-19T09:02:13.498Z,4.44
2017-03-19T09:02:53.982Z,4.56
2017-03-19T09:03:34.438Z,4.49
2017-03-19T09:04:14.910Z,4.53